sensor_id;sensor_type;location;lat;lon;timestamp;pressure;altitude;pressure_sealevel;temperature;humidity
71107;BME280;58763;47.982;11.516;2023-04-22T00:00:27;93624.66;;;9.64;66.81
71107;BME280;58763;47.982;11.516;2023-04-22T00:02:53;93633.19;;;9.71;66.60
71107;BME280;58763;47.982;11.516;2023-04-22T00:05:20;93631.66;;;9.65;67.50
71107;BME280;58763;47.982;11.516;2023-04-22T00:07:46;93636.69;;;9.53;67.62
71107;BME280;58763;47.982;11.516;2023-04-22T00:10:11;93632.59;;;9.55;68.03
71107;BME280;58763;47.982;11.516;2023-04-22T00:12:37;93630.47;;;9.52;68.36
71107;BME280;58763;47.982;11.516;2023-04-22T00:15:03;93633.78;;;9.49;68.50
71107;BME280;58763;47.982;11.516;2023-04-22T00:17:28;93629.47;;;9.48;69.05
71107;BME280;58763;47.982;11.516;2023-04-22T00:19:54;93626.41;;;9.55;68.86
71107;BME280;58763;47.982;11.516;2023-04-22T00:22:20;93622.69;;;9.51;68.90
71107;BME280;58763;47.982;11.516;2023-04-22T00:24:46;93618.97;;;9.47;68.98
71107;BME280;58763;47.982;11.516;2023-04-22T00:27:11;93632.16;;;9.48;69.67
71107;BME280;58763;47.982;11.516;2023-04-22T00:29:36;93623.50;;;9.51;69.29
71107;BME280;58763;47.982;11.516;2023-04-22T00:32:02;93623.63;;;9.60;68.86
71107;BME280;58763;47.982;11.516;2023-04-22T00:34:28;93620.88;;;9.65;68.47
71107;BME280;58763;47.982;11.516;2023-04-22T00:36:53;93624.38;;;9.65;68.40
71107;BME280;58763;47.982;11.516;2023-04-22T00:39:19;93623.69;;;9.73;68.35
71107;BME280;58763;47.982;11.516;2023-04-22T00:41:45;93620.09;;;9.78;67.96
71107;BME280;58763;47.982;11.516;2023-04-22T00:44:11;93623.13;;;9.77;67.99
71107;BME280;58763;47.982;11.516;2023-04-22T00:46:38;93620.22;;;9.73;68.13
71107;BME280;58763;47.982;11.516;2023-04-22T00:49:04;93618.59;;;9.72;68.07
71107;BME280;58763;47.982;11.516;2023-04-22T00:51:30;93618.59;;;9.72;68.12
71107;BME280;58763;47.982;11.516;2023-04-22T00:53:56;93625.06;;;9.71;68.21
71107;BME280;58763;47.982;11.516;2023-04-22T00:56:24;93626.13;;;9.75;68.29
71107;BME280;58763;47.982;11.516;2023-04-22T00:58:51;93618.59;;;9.72;68.40
71107;BME280;58763;47.982;11.516;2023-04-22T01:01:17;93614.88;;;9.68;68.49
71107;BME280;58763;47.982;11.516;2023-04-22T01:03:45;93619.69;;;9.71;68.38
71107;BME280;58763;47.982;11.516;2023-04-22T01:06:12;93621.81;;;9.74;68.13
71107;BME280;58763;47.982;11.516;2023-04-22T01:08:39;93620.09;;;9.78;68.18
71107;BME280;58763;47.982;11.516;2023-04-22T01:11:05;93620.41;;;9.77;68.20
71107;BME280;58763;47.982;11.516;2023-04-22T01:13:30;93618.59;;;9.72;68.13
71107;BME280;58763;47.982;11.516;2023-04-22T01:15:57;93624.50;;;9.74;67.94
71107;BME280;58763;47.982;11.516;2023-04-22T01:18:24;93622.38;;;9.71;67.87
71107;BME280;58763;47.982;11.516;2023-04-22T01:20:49;93611.16;;;9.64;68.32
71107;BME280;58763;47.982;11.516;2023-04-22T01:23:18;93617.16;;;9.61;68.38
71107;BME280;58763;47.982;11.516;2023-04-22T01:25:44;93622.31;;;9.57;68.27
71107;BME280;58763;47.982;11.516;2023-04-22T01:28:10;93626.13;;;9.56;68.33
71107;BME280;58763;47.982;11.516;2023-04-22T01:30:36;93618.31;;;9.55;68.44
71107;BME280;58763;47.982;11.516;2023-04-22T01:33:02;93620.34;;;9.63;67.92
71107;BME280;58763;47.982;11.516;2023-04-22T01:35:28;93630.03;;;9.64;67.79
71107;BME280;58763;47.982;11.516;2023-04-22T01:37:54;93627.13;;;9.60;67.64
71107;BME280;58763;47.982;11.516;2023-04-22T01:40:22;93622.69;;;9.51;67.39
71107;BME280;58763;47.982;11.516;2023-04-22T01:42:49;93628.66;;;9.48;67.57
71107;BME280;58763;47.982;11.516;2023-04-22T01:45:15;93622.25;;;9.44;67.70
71107;BME280;58763;47.982;11.516;2023-04-22T01:47:42;93622.63;;;9.37;67.83
71107;BME280;58763;47.982;11.516;2023-04-22T01:50:07;93621.31;;;9.35;68.13
71107;BME280;58763;47.982;11.516;2023-04-22T01:52:34;93620.81;;;9.33;68.34
71107;BME280;58763;47.982;11.516;2023-04-22T01:55:00;93629.47;;;9.30;68.20
71107;BME280;58763;47.982;11.516;2023-04-22T01:57:26;93632.16;;;9.30;68.24
71107;BME280;58763;47.982;11.516;2023-04-22T01:59:52;93625.19;;;9.29;68.08
71107;BME280;58763;47.982;11.516;2023-04-22T02:02:17;93624.06;;;9.30;67.73
71107;BME280;58763;47.982;11.516;2023-04-22T02:04:43;93621.88;;;9.32;67.58
71107;BME280;58763;47.982;11.516;2023-04-22T02:07:08;93633.19;;;9.34;67.71
71107;BME280;58763;47.982;11.516;2023-04-22T02:09:33;93627.56;;;9.30;67.88
71107;BME280;58763;47.982;11.516;2023-04-22T02:11:59;93628.97;;;9.28;67.99
71107;BME280;58763;47.982;11.516;2023-04-22T02:14:25;93630.28;;;9.30;67.73
71107;BME280;58763;47.982;11.516;2023-04-22T02:16:51;93630.34;;;9.25;67.62
71107;BME280;58763;47.982;11.516;2023-04-22T02:19:17;93620.88;;;9.28;67.58
71107;BME280;58763;47.982;11.516;2023-04-22T02:21:42;93630.78;;;9.32;67.30
71107;BME280;58763;47.982;11.516;2023-04-22T02:24:08;93630.56;;;9.29;67.31
71107;BME280;58763;47.982;11.516;2023-04-22T02:26:33;93630.78;;;9.32;66.90
71107;BME280;58763;47.982;11.516;2023-04-22T02:28:59;93628.22;;;9.22;67.05
71107;BME280;58763;47.982;11.516;2023-04-22T02:31:24;93629.69;;;9.15;67.07
71107;BME280;58763;47.982;11.516;2023-04-22T02:33:50;93629.69;;;9.15;67.07
71107;BME280;58763;47.982;11.516;2023-04-22T02:36:15;93622.53;;;9.05;67.18
71107;BME280;58763;47.982;11.516;2023-04-22T02:38:41;93630.44;;;8.96;66.93
71107;BME280;58763;47.982;11.516;2023-04-22T02:41:06;93626.63;;;8.79;67.33
71107;BME280;58763;47.982;11.516;2023-04-22T02:43:32;93615.94;;;8.69;67.77
71107;BME280;58763;47.982;11.516;2023-04-22T02:45:57;93615.13;;;8.68;67.43
71107;BME280;58763;47.982;11.516;2023-04-22T02:48:23;93611.94;;;8.66;67.55
71107;BME280;58763;47.982;11.516;2023-04-22T02:50:48;93619.28;;;8.61;67.50
71107;BME280;58763;47.982;11.516;2023-04-22T02:53:14;93613.59;;;8.62;67.04
71107;BME280;58763;47.982;11.516;2023-04-22T02:55:40;93610.78;;;8.72;67.25
71107;BME280;58763;47.982;11.516;2023-04-22T02:58:06;93610.19;;;8.75;66.74
71107;BME280;58763;47.982;11.516;2023-04-22T03:00:31;93606.44;;;8.76;66.75
71107;BME280;58763;47.982;11.516;2023-04-22T03:02:57;93604.53;;;8.77;66.21
71107;BME280;58763;47.982;11.516;2023-04-22T03:05:22;93609.28;;;8.85;65.50
71107;BME280;58763;47.982;11.516;2023-04-22T03:07:48;93616.03;;;8.82;65.47
71107;BME280;58763;47.982;11.516;2023-04-22T03:10:13;93615.53;;;8.80;65.12
71107;BME280;58763;47.982;11.516;2023-04-22T03:12:40;93614.50;;;8.76;64.92
71107;BME280;58763;47.982;11.516;2023-04-22T03:15:06;93623.22;;;8.68;64.86
71107;BME280;58763;47.982;11.516;2023-04-22T03:17:31;93612.53;;;8.63;64.85
71107;BME280;58763;47.982;11.516;2023-04-22T03:19:57;93611.16;;;8.42;65.22
71107;BME280;58763;47.982;11.516;2023-04-22T03:22:22;93610.75;;;8.25;66.15
71107;BME280;58763;47.982;11.516;2023-04-22T03:24:48;93611.69;;;8.10;66.22
71107;BME280;58763;47.982;11.516;2023-04-22T03:27:13;93604.75;;;8.04;66.79
71107;BME280;58763;47.982;11.516;2023-04-22T03:29:39;93612.16;;;7.89;67.42
71107;BME280;58763;47.982;11.516;2023-04-22T03:32:04;93611.41;;;7.83;67.47
71107;BME280;58763;47.982;11.516;2023-04-22T03:34:30;93608.91;;;7.92;67.14
71107;BME280;58763;47.982;11.516;2023-04-22T03:36:55;93606.97;;;7.97;67.24
71107;BME280;58763;47.982;11.516;2023-04-22T03:39:21;93612.31;;;8.02;67.14
71107;BME280;58763;47.982;11.516;2023-04-22T03:41:46;93610.34;;;8.08;66.61
71107;BME280;58763;47.982;11.516;2023-04-22T03:44:12;93606.59;;;8.09;66.34
71107;BME280;58763;47.982;11.516;2023-04-22T03:46:37;93602.19;;;8.18;66.20
71107;BME280;58763;47.982;11.516;2023-04-22T03:49:02;93613.06;;;8.08;66.01
71107;BME280;58763;47.982;11.516;2023-04-22T03:51:28;93606.03;;;8.12;66.39
71107;BME280;58763;47.982;11.516;2023-04-22T03:53:53;93608.13;;;8.15;66.07
71107;BME280;58763;47.982;11.516;2023-04-22T03:56:19;93612.41;;;8.21;65.85
71107;BME280;58763;47.982;11.516;2023-04-22T03:58:45;93621.66;;;8.39;65.45
71107;BME280;58763;47.982;11.516;2023-04-22T04:01:10;93619.16;;;8.47;64.77
71107;BME280;58763;47.982;11.516;2023-04-22T04:03:36;93617.91;;;8.40;65.11
71107;BME280;58763;47.982;11.516;2023-04-22T04:06:02;93624.19;;;8.30;65.51
71107;BME280;58763;47.982;11.516;2023-04-22T04:08:27;93620.09;;;8.38;65.19
71107;BME280;58763;47.982;11.516;2023-04-22T04:10:53;93618.13;;;8.43;65.17
71107;BME280;58763;47.982;11.516;2023-04-22T04:13:18;93614.34;;;8.44;64.94
71107;BME280;58763;47.982;11.516;2023-04-22T04:15:44;93621.06;;;8.47;64.63
71107;BME280;58763;47.982;11.516;2023-04-22T04:18:09;93623.28;;;8.40;64.99
71107;BME280;58763;47.982;11.516;2023-04-22T04:20:35;93628.44;;;8.36;64.86
71107;BME280;58763;47.982;11.516;2023-04-22T04:23:01;93625.00;;;8.30;65.11
71107;BME280;58763;47.982;11.516;2023-04-22T04:25:26;93628.78;;;8.29;64.69
71107;BME280;58763;47.982;11.516;2023-04-22T04:28:03;93621.25;;;8.21;64.72
71107;BME280;58763;47.982;11.516;2023-04-22T04:30:29;93624.41;;;8.05;65.37
71107;BME280;58763;47.982;11.516;2023-04-22T04:32:55;93621.28;;;7.93;66.14
71107;BME280;58763;47.982;11.516;2023-04-22T04:35:22;93614.31;;;7.87;66.23
71107;BME280;58763;47.982;11.516;2023-04-22T04:37:48;93621.28;;;7.93;66.65
71107;BME280;58763;47.982;11.516;2023-04-22T04:40:15;93614.09;;;7.83;65.98
71107;BME280;58763;47.982;11.516;2023-04-22T04:42:40;93619.41;;;7.93;65.58
71107;BME280;58763;47.982;11.516;2023-04-22T04:45:07;93616.16;;;7.91;65.68
71107;BME280;58763;47.982;11.516;2023-04-22T04:47:33;93621.25;;;7.98;65.58
71107;BME280;58763;47.982;11.516;2023-04-22T04:50:00;93623.88;;;8.03;65.96
71107;BME280;58763;47.982;11.516;2023-04-22T04:52:28;93625.47;;;8.04;66.25
71107;BME280;58763;47.982;11.516;2023-04-22T04:54:54;93626.25;;;8.09;66.28
71107;BME280;58763;47.982;11.516;2023-04-22T04:57:19;93621.81;;;8.23;66.18
71107;BME280;58763;47.982;11.516;2023-04-22T04:59:45;93622.81;;;8.32;65.96
71107;BME280;58763;47.982;11.516;2023-04-22T05:02:10;93626.31;;;8.33;66.24
71107;BME280;58763;47.982;11.516;2023-04-22T05:04:35;93622.94;;;8.46;66.21
71107;BME280;58763;47.982;11.516;2023-04-22T05:07:01;93623.69;;;8.52;66.02
71107;BME280;58763;47.982;11.516;2023-04-22T05:09:26;93617.78;;;8.50;65.86
71107;BME280;58763;47.982;11.516;2023-04-22T05:11:52;93624.72;;;8.56;66.51
71107;BME280;58763;47.982;11.516;2023-04-22T05:14:17;93623.09;;;8.55;66.63
71107;BME280;58763;47.982;11.516;2023-04-22T05:16:43;93620.66;;;8.58;66.53
71107;BME280;58763;47.982;11.516;2023-04-22T05:19:08;93616.88;;;8.59;66.86
71107;BME280;58763;47.982;11.516;2023-04-22T05:21:34;93613.59;;;8.62;66.59
71107;BME280;58763;47.982;11.516;2023-04-22T05:23:59;93618.59;;;8.74;66.23
71107;BME280;58763;47.982;11.516;2023-04-22T05:26:25;93625.50;;;8.80;65.03
71107;BME280;58763;47.982;11.516;2023-04-22T05:28:50;93622.59;;;9.00;64.83
71107;BME280;58763;47.982;11.516;2023-04-22T05:31:16;93624.06;;;9.11;65.19
71107;BME280;58763;47.982;11.516;2023-04-22T05:33:41;93628.63;;;9.11;66.59
71107;BME280;58763;47.982;11.516;2023-04-22T05:36:06;93633.41;;;9.19;66.92
71107;BME280;58763;47.982;11.516;2023-04-22T05:38:32;93626.03;;;9.24;67.38
71107;BME280;58763;47.982;11.516;2023-04-22T05:40:57;93635.88;;;9.34;65.82
71107;BME280;58763;47.982;11.516;2023-04-22T05:43:23;93625.03;;;9.39;65.88
71107;BME280;58763;47.982;11.516;2023-04-22T05:45:48;93632.25;;;9.43;66.36
71107;BME280;58763;47.982;11.516;2023-04-22T05:48:14;93636.63;;;9.39;66.13
71107;BME280;58763;47.982;11.516;2023-04-22T05:50:39;93635.69;;;9.49;67.61
71107;BME280;58763;47.982;11.516;2023-04-22T05:53:05;93640.50;;;9.52;67.38
71107;BME280;58763;47.982;11.516;2023-04-22T05:55:30;93650.94;;;9.58;68.11
71107;BME280;58763;47.982;11.516;2023-04-22T05:57:55;93646.25;;;9.64;66.21
71107;BME280;58763;47.982;11.516;2023-04-22T06:00:21;93649.38;;;9.71;66.16
71107;BME280;58763;47.982;11.516;2023-04-22T06:02:46;93654.50;;;9.72;64.72
71107;BME280;58763;47.982;11.516;2023-04-22T06:05:12;93654.13;;;9.79;65.07
71107;BME280;58763;47.982;11.516;2023-04-22T06:07:37;93652.44;;;9.83;64.94
71107;BME280;58763;47.982;11.516;2023-04-22T06:10:04;93662.72;;;9.81;65.39
71107;BME280;58763;47.982;11.516;2023-04-22T06:12:30;93656.06;;;9.92;65.48
71107;BME280;58763;47.982;11.516;2023-04-22T06:14:55;93667.31;;;9.99;66.55
71107;BME280;58763;47.982;11.516;2023-04-22T06:17:20;93662.63;;;10.05;65.97
71107;BME280;58763;47.982;11.516;2023-04-22T06:19:46;93667.63;;;10.16;65.18
71107;BME280;58763;47.982;11.516;2023-04-22T06:22:11;93657.66;;;10.30;65.20
71107;BME280;58763;47.982;11.516;2023-04-22T06:24:37;93653.25;;;10.34;64.60
71107;BME280;58763;47.982;11.516;2023-04-22T06:27:02;93665.41;;;10.51;64.96
71107;BME280;58763;47.982;11.516;2023-04-22T06:29:28;93660.50;;;10.53;65.54
71107;BME280;58763;47.982;11.516;2023-04-22T06:31:53;93660.81;;;10.65;65.48
71107;BME280;58763;47.982;11.516;2023-04-22T06:34:19;93659.56;;;10.76;64.41
71107;BME280;58763;47.982;11.516;2023-04-22T06:36:44;93665.34;;;10.83;64.96
71107;BME280;58763;47.982;11.516;2023-04-22T06:39:10;93663.56;;;11.05;63.89
71107;BME280;58763;47.982;11.516;2023-04-22T06:41:35;93663.47;;;11.24;62.67
71107;BME280;58763;47.982;11.516;2023-04-22T06:44:01;93657.13;;;11.42;60.37
71107;BME280;58763;47.982;11.516;2023-04-22T06:46:26;93667.00;;;11.60;59.89
71107;BME280;58763;47.982;11.516;2023-04-22T06:48:52;93668.50;;;11.80;58.74
71107;BME280;58763;47.982;11.516;2023-04-22T06:51:17;93664.41;;;12.05;59.53
71107;BME280;58763;47.982;11.516;2023-04-22T06:53:43;93662.56;;;12.14;59.54
71107;BME280;58763;47.982;11.516;2023-04-22T06:56:08;93666.50;;;12.30;59.98
71107;BME280;58763;47.982;11.516;2023-04-22T06:58:34;93666.03;;;12.50;59.96
71107;BME280;58763;47.982;11.516;2023-04-22T07:00:59;93663.94;;;12.78;57.58
71107;BME280;58763;47.982;11.516;2023-04-22T07:03:25;93653.47;;;12.93;57.89
71107;BME280;58763;47.982;11.516;2023-04-22T07:05:50;93657.00;;;13.25;56.61
71107;BME280;58763;47.982;11.516;2023-04-22T07:08:15;93659.94;;;13.45;56.72
71107;BME280;58763;47.982;11.516;2023-04-22T07:10:41;93668.28;;;13.66;55.90
71107;BME280;58763;47.982;11.516;2023-04-22T07:13:07;93662.09;;;13.91;55.71
71107;BME280;58763;47.982;11.516;2023-04-22T07:15:32;93658.44;;;14.13;54.65
71107;BME280;58763;47.982;11.516;2023-04-22T07:17:58;93664.84;;;14.34;57.04
71107;BME280;58763;47.982;11.516;2023-04-22T07:20:23;93671.69;;;14.66;54.90
71107;BME280;58763;47.982;11.516;2023-04-22T07:22:50;93662.59;;;15.16;55.19
71107;BME280;58763;47.982;11.516;2023-04-22T07:25:15;93648.72;;;15.47;52.91
71107;BME280;58763;47.982;11.516;2023-04-22T07:27:41;93655.28;;;15.75;49.97
71107;BME280;58763;47.982;11.516;2023-04-22T07:30:06;93654.44;;;16.04;48.01
71107;BME280;58763;47.982;11.516;2023-04-22T07:32:32;93654.50;;;16.37;48.06
71107;BME280;58763;47.982;11.516;2023-04-22T07:34:58;93661.03;;;16.65;48.22
71107;BME280;58763;47.982;11.516;2023-04-22T07:37:23;93661.09;;;16.77;48.34
71107;BME280;58763;47.982;11.516;2023-04-22T07:39:49;93660.00;;;17.02;47.42
71107;BME280;58763;47.982;11.516;2023-04-22T07:42:14;93656.34;;;16.86;46.87
71107;BME280;58763;47.982;11.516;2023-04-22T07:44:40;93651.44;;;16.80;48.10
71107;BME280;58763;47.982;11.516;2023-04-22T07:47:05;93655.41;;;16.82;46.24
71107;BME280;58763;47.982;11.516;2023-04-22T07:49:32;93650.44;;;16.96;45.85
71107;BME280;58763;47.982;11.516;2023-04-22T07:51:58;93651.00;;;17.02;47.57
71107;BME280;58763;47.982;11.516;2023-04-22T07:54:23;93654.16;;;17.24;46.27
71107;BME280;58763;47.982;11.516;2023-04-22T07:56:49;93654.47;;;17.23;45.66
71107;BME280;58763;47.982;11.516;2023-04-22T07:59:15;93652.75;;;17.18;47.40
71107;BME280;58763;47.982;11.516;2023-04-22T08:01:40;93658.66;;;17.08;45.24
71107;BME280;58763;47.982;11.516;2023-04-22T08:04:05;93658.69;;;17.20;46.57
71107;BME280;58763;47.982;11.516;2023-04-22T08:06:32;93662.00;;;17.26;47.74
71107;BME280;58763;47.982;11.516;2023-04-22T08:08:57;93660.03;;;17.14;44.45
71107;BME280;58763;47.982;11.516;2023-04-22T08:11:22;93652.66;;;17.15;44.39
71107;BME280;58763;47.982;11.516;2023-04-22T08:13:48;93659.31;;;17.50;43.65
71107;BME280;58763;47.982;11.516;2023-04-22T08:16:13;93661.03;;;17.55;43.71
71107;BME280;58763;47.982;11.516;2023-04-22T08:18:39;93656.13;;;17.60;43.13
71107;BME280;58763;47.982;11.516;2023-04-22T08:21:05;93659.00;;;17.64;41.98
71107;BME280;58763;47.982;11.516;2023-04-22T08:23:31;93652.59;;;17.60;42.63
71107;BME280;58763;47.982;11.516;2023-04-22T08:25:56;93657.97;;;17.56;40.74
71107;BME280;58763;47.982;11.516;2023-04-22T08:28:22;93652.59;;;17.72;39.94
71107;BME280;58763;47.982;11.516;2023-04-22T08:30:47;93657.97;;;17.68;39.98
71107;BME280;58763;47.982;11.516;2023-04-22T08:33:13;93663.22;;;17.73;39.14
71107;BME280;58763;47.982;11.516;2023-04-22T08:35:39;93660.22;;;17.78;40.97
71107;BME280;58763;47.982;11.516;2023-04-22T08:38:05;93663.75;;;18.03;37.52
71107;BME280;58763;47.982;11.516;2023-04-22T08:40:30;93667.59;;;18.14;38.29
71107;BME280;58763;47.982;11.516;2023-04-22T08:42:56;93668.84;;;18.29;38.11
71107;BME280;58763;47.982;11.516;2023-04-22T08:45:22;93670.72;;;18.65;39.70
71107;BME280;58763;47.982;11.516;2023-04-22T08:47:48;93660.28;;;18.70;38.04
71107;BME280;58763;47.982;11.516;2023-04-22T08:50:14;93662.22;;;18.70;36.97
71107;BME280;58763;47.982;11.516;2023-04-22T08:52:43;93657.22;;;18.72;37.14
71107;BME280;58763;47.982;11.516;2023-04-22T08:55:08;93657.53;;;18.70;36.92
71107;BME280;58763;47.982;11.516;2023-04-22T08:57:38;93655.00;;;18.77;37.03
71107;BME280;58763;47.982;11.516;2023-04-22T09:00:04;93651.81;;;18.75;35.94
71107;BME280;58763;47.982;11.516;2023-04-22T09:02:31;93660.06;;;18.91;35.62
71107;BME280;58763;47.982;11.516;2023-04-22T09:05:00;93656.22;;;19.07;35.68
71107;BME280;58763;47.982;11.516;2023-04-22T09:07:27;93652.44;;;19.12;34.02
71107;BME280;58763;47.982;11.516;2023-04-22T09:09:55;93649.44;;;19.17;31.31
71107;BME280;58763;47.982;11.516;2023-04-22T09:12:20;93643.09;;;19.28;31.45
71107;BME280;58763;47.982;11.516;2023-04-22T09:14:46;93638.25;;;19.38;31.34
71107;BME280;58763;47.982;11.516;2023-04-22T09:17:29;93639.84;;;19.54;31.67
71107;BME280;58763;47.982;11.516;2023-04-22T09:19:59;93637.09;;;19.70;32.23
71107;BME280;58763;47.982;11.516;2023-04-22T09:22:36;93636.66;;;19.68;31.69
71107;BME280;58763;47.982;11.516;2023-04-22T09:25:13;93633.81;;;19.80;33.23
71107;BME280;58763;47.982;11.516;2023-04-22T09:27:40;93635.06;;;19.82;32.99
71107;BME280;58763;47.982;11.516;2023-04-22T09:30:09;93631.50;;;19.97;34.25
71107;BME280;58763;47.982;11.516;2023-04-22T09:32:35;93635.19;;;20.05;33.77
71107;BME280;58763;47.982;11.516;2023-04-22T09:35:00;93640.94;;;20.16;35.30
71107;BME280;58763;47.982;11.516;2023-04-22T09:37:26;93636.66;;;20.34;34.42
71107;BME280;58763;47.982;11.516;2023-04-22T09:39:53;93637.50;;;20.38;33.57
71107;BME280;58763;47.982;11.516;2023-04-22T09:42:50;93629.34;;;20.22;33.17
71107;BME280;58763;47.982;11.516;2023-04-22T09:47:50;93629.78;;;20.24;33.18
71107;BME280;58763;47.982;11.516;2023-04-22T09:50:19;93629.16;;;20.50;34.95
71107;BME280;58763;47.982;11.516;2023-04-22T09:52:53;93623.28;;;20.71;34.49
71107;BME280;58763;47.982;11.516;2023-04-22T09:55:20;93618.38;;;20.80;33.15
71107;BME280;58763;47.982;11.516;2023-04-22T09:57:50;93614.84;;;20.79;33.91
71107;BME280;58763;47.982;11.516;2023-04-22T10:00:15;93616.28;;;20.92;31.68
71107;BME280;58763;47.982;11.516;2023-04-22T10:02:41;93609.94;;;21.07;33.09
71107;BME280;58763;47.982;11.516;2023-04-22T10:05:07;93610.81;;;21.15;31.35
71107;BME280;58763;47.982;11.516;2023-04-22T10:07:34;93604.69;;;21.44;34.05
71107;BME280;58763;47.982;11.516;2023-04-22T10:10:01;93593.97;;;21.62;32.66
71107;BME280;58763;47.982;11.516;2023-04-22T10:12:27;93595.19;;;21.64;30.82
71107;BME280;58763;47.982;11.516;2023-04-22T10:14:53;93594.63;;;21.78;32.22
71107;BME280;58763;47.982;11.516;2023-04-22T10:17:20;93590.84;;;21.86;30.84
71107;BME280;58763;47.982;11.516;2023-04-22T10:19:46;93591.38;;;21.95;29.31
71107;BME280;58763;47.982;11.516;2023-04-22T10:22:13;93594.81;;;21.88;29.89
71107;BME280;58763;47.982;11.516;2023-04-22T10:24:38;93588.72;;;22.02;30.74
71107;BME280;58763;47.982;11.516;2023-04-22T10:27:05;93594.34;;;22.09;31.16
71107;BME280;58763;47.982;11.516;2023-04-22T10:29:38;93587.22;;;21.82;28.45
71107;BME280;58763;47.982;11.516;2023-04-22T10:34:35;93587.53;;;22.29;29.12
71107;BME280;58763;47.982;11.516;2023-04-22T10:37:05;93590.22;;;22.52;30.08
71107;BME280;58763;47.982;11.516;2023-04-22T10:39:31;93586.53;;;22.71;29.58
71107;BME280;58763;47.982;11.516;2023-04-22T10:47:26;93574.25;;;22.98;28.33
71107;BME280;58763;47.982;11.516;2023-04-22T10:52:36;93563.25;;;23.38;29.48
71107;BME280;58763;47.982;11.516;2023-04-22T10:55:02;93565.41;;;23.59;28.66
71107;BME280;58763;47.982;11.516;2023-04-22T10:57:34;93571.78;;;23.70;29.20
71107;BME280;58763;47.982;11.516;2023-04-22T11:00:38;93560.56;;;23.45;26.41
71107;BME280;58763;47.982;11.516;2023-04-22T11:03:06;93566.19;;;23.59;27.59
71107;BME280;58763;47.982;11.516;2023-04-22T11:05:32;93564.72;;;23.76;28.05
71107;BME280;58763;47.982;11.516;2023-04-22T11:08:26;93565.69;;;23.97;27.88
71107;BME280;58763;47.982;11.516;2023-04-22T11:11:07;93562.69;;;24.20;26.87
71107;BME280;58763;47.982;11.516;2023-04-22T11:13:32;93564.28;;;24.21;29.03
71107;BME280;58763;47.982;11.516;2023-04-22T11:15:58;93558.41;;;24.30;27.09
71107;BME280;58763;47.982;11.516;2023-04-22T11:18:25;93566.25;;;24.21;25.34
71107;BME280;58763;47.982;11.516;2023-04-22T11:20:51;93556.78;;;24.18;26.66
71107;BME280;58763;47.982;11.516;2023-04-22T11:23:28;93558.00;;;24.28;25.08
71107;BME280;58763;47.982;11.516;2023-04-22T11:26:04;93550.16;;;24.37;27.41
71107;BME280;58763;47.982;11.516;2023-04-22T11:28:30;93543.84;;;24.33;25.19
71107;BME280;58763;47.982;11.516;2023-04-22T11:31:07;93550.56;;;24.32;25.13
71107;BME280;58763;47.982;11.516;2023-04-22T11:33:35;93555.31;;;24.42;24.75
71107;BME280;58763;47.982;11.516;2023-04-22T11:36:01;93549.47;;;24.54;26.53
71107;BME280;58763;47.982;11.516;2023-04-22T11:38:26;93555.06;;;24.68;25.66
71107;BME280;58763;47.982;11.516;2023-04-22T11:40:54;93555.53;;;24.84;24.05
71107;BME280;58763;47.982;11.516;2023-04-22T11:43:20;93560.31;;;24.98;24.86
71107;BME280;58763;47.982;11.516;2023-04-22T11:45:45;93557.50;;;24.84;24.01
71107;BME280;58763;47.982;11.516;2023-04-22T11:48:14;93551.91;;;24.69;22.77
71107;BME280;58763;47.982;11.516;2023-04-22T11:50:41;93551.13;;;24.69;23.24
71107;BME280;58763;47.982;11.516;2023-04-22T11:53:17;93554.38;;;24.85;23.63
71107;BME280;58763;47.982;11.516;2023-04-22T11:55:45;93547.25;;;24.84;22.26
71107;BME280;58763;47.982;11.516;2023-04-22T11:58:19;93548.88;;;24.99;23.56
71107;BME280;58763;47.982;11.516;2023-04-22T12:00:50;93543.38;;;25.17;23.22
71107;BME280;58763;47.982;11.516;2023-04-22T12:03:18;93540.22;;;25.22;23.48
71107;BME280;58763;47.982;11.516;2023-04-22T12:05:45;93537.47;;;25.32;24.84
71107;BME280;58763;47.982;11.516;2023-04-22T12:08:22;93544.56;;;25.19;23.88
71107;BME280;58763;47.982;11.516;2023-04-22T12:10:53;93541.78;;;25.23;23.20
71107;BME280;58763;47.982;11.516;2023-04-22T12:13:25;93535.50;;;25.22;24.32
71107;BME280;58763;47.982;11.516;2023-04-22T12:16:02;93535.47;;;25.19;23.70
71107;BME280;58763;47.982;11.516;2023-04-22T12:18:35;93539.44;;;25.18;23.27
71107;BME280;58763;47.982;11.516;2023-04-22T12:21:09;93546.13;;;24.99;21.51
71107;BME280;58763;47.982;11.516;2023-04-22T12:23:46;93537.81;;;25.03;24.13
71107;BME280;58763;47.982;11.516;2023-04-22T12:26:14;93537.81;;;24.99;24.68
71107;BME280;58763;47.982;11.516;2023-04-22T12:28:41;93536.97;;;24.85;22.87
71107;BME280;58763;47.982;11.516;2023-04-22T12:31:07;93531.44;;;24.88;22.61
71107;BME280;58763;47.982;11.516;2023-04-22T12:33:33;93537.38;;;24.90;21.02
71107;BME280;58763;47.982;11.516;2023-04-22T12:35:59;93537.78;;;24.89;22.57
71107;BME280;58763;47.982;11.516;2023-04-22T12:38:24;93539.75;;;24.85;23.66
71107;BME280;58763;47.982;11.516;2023-04-22T12:40:51;93538.16;;;24.91;25.15
71107;BME280;58763;47.982;11.516;2023-04-22T12:43:16;93531.06;;;24.86;23.74
71107;BME280;58763;47.982;11.516;2023-04-22T12:45:42;93536.19;;;24.84;23.16
71107;BME280;58763;47.982;11.516;2023-04-22T12:48:08;93529.06;;;24.90;23.47
71107;BME280;58763;47.982;11.516;2023-04-22T12:50:33;93537.81;;;24.92;23.78
71107;BME280;58763;47.982;11.516;2023-04-22T12:52:59;93533.06;;;24.96;23.31
71107;BME280;58763;47.982;11.516;2023-04-22T12:55:25;93527.19;;;25.15;23.12
71107;BME280;58763;47.982;11.516;2023-04-22T12:57:51;93522.06;;;25.31;22.80
71107;BME280;58763;47.982;11.516;2023-04-22T13:00:17;93523.59;;;25.18;25.85
71107;BME280;58763;47.982;11.516;2023-04-22T13:02:44;93518.50;;;25.24;24.81
71107;BME280;58763;47.982;11.516;2023-04-22T13:05:11;93513.34;;;25.08;26.92